Time;durP1;ratioP1;P1;durP2;ratioP2;P2;SDS_P1;SDS_P2;PMS_P1;PMS_P2;Temp;Humidity;BMP_temperature;BMP_pressure;BME280_temperature;BME280_humidity;BME280_pressure;Samples;Min_cycle;Max_cycle;Signal;HPM_P1;HPM_P2
2023/09/16 00:00:08;;;;;;;6.53;4.80;;;18.40;75.90;;;;;;4995977;28;20109;-88
2023/09/16 00:02:37;;;;;;;6.40;5.00;;;18.40;75.90;;;;;;5007194;28;20036;-88
2023/09/16 00:05:04;;;;;;;5.68;4.78;;;18.40;76.10;;;;;;4995307;28;20034;-88
2023/09/16 00:07:30;;;;;;;8.68;5.07;;;18.40;76.30;;;;;;5005977;28;20030;-89
2023/09/16 00:09:58;;;;;;;7.72;5.30;;;18.40;76.30;;;;;;4994176;28;20033;-89
2023/09/16 00:12:24;;;;;;;6.32;4.50;;;18.30;76.50;;;;;;4988517;28;20041;-89
2023/09/16 00:14:50;;;;;;;7.03;5.03;;;18.30;76.50;;;;;;4994846;28;20026;-88
2023/09/16 00:17:17;;;;;;;7.65;4.78;;;18.30;76.70;;;;;;5007167;28;20037;-89
2023/09/16 00:19:43;;;;;;;7.68;4.90;;;18.30;76.90;;;;;;5008080;28;20018;-89
2023/09/16 00:22:10;;;;;;;6.30;4.50;;;18.30;77.00;;;;;;4994294;28;20373;-88
2023/09/16 00:24:36;;;;;;;9.23;5.70;;;18.30;77.10;;;;;;5004460;28;20023;-88
2023/09/16 00:27:02;;;;;;;6.22;5.10;;;18.30;77.20;;;;;;4998505;28;20072;-88
2023/09/16 00:29:27;;;;;;;6.78;4.63;;;18.30;77.30;;;;;;4995516;28;20351;-88
2023/09/16 00:31:53;;;;;;;7.13;4.85;;;18.30;77.30;;;;;;4988571;28;20402;-88
2023/09/16 00:34:18;;;;;;;5.15;4.20;;;18.30;77.20;;;;;;5000877;28;20030;-87
2023/09/16 00:36:44;;;;;;;5.03;4.10;;;18.40;77.20;;;;;;5000538;28;20029;-88
2023/09/16 00:39:10;;;;;;;6.50;4.30;;;18.40;77.60;;;;;;5023396;28;20081;-88
2023/09/16 00:41:35;;;;;;;6.82;4.07;;;18.50;76.70;;;;;;4990187;28;20160;-88
2023/09/16 00:44:01;;;;;;;7.03;4.88;;;18.50;76.70;;;;;;5015032;28;20026;-89
2023/09/16 00:46:26;;;;;;;7.13;4.57;;;18.50;76.80;;;;;;5021892;28;20026;-90
2023/09/16 00:48:52;;;;;;;6.28;4.65;;;18.40;77.00;;;;;;4990546;28;20524;-90
2023/09/16 00:51:19;;;;;;;5.55;4.32;;;18.40;77.10;;;;;;4991674;28;20031;-91
2023/09/16 00:53:45;;;;;;;6.40;5.10;;;18.40;77.00;;;;;;4993193;28;20162;-91
2023/09/16 00:56:11;;;;;;;5.22;4.30;;;18.40;77.10;;;;;;4989048;28;20470;-88
2023/09/16 00:58:37;;;;;;;6.78;5.50;;;18.40;77.20;;;;;;4992992;28;20029;-91
2023/09/16 01:01:03;;;;;;;6.60;5.05;;;18.40;77.50;;;;;;5006539;28;20026;-91
2023/09/16 01:03:28;;;;;;;6.53;4.85;;;18.40;77.40;;;;;;4994807;28;20018;-91
2023/09/16 01:05:55;;;;;;;5.40;4.63;;;18.40;77.40;;;;;;5000623;28;20034;-91
2023/09/16 01:08:22;;;;;;;8.88;5.38;;;18.40;77.40;;;;;;4993245;28;20022;-91
2023/09/16 01:10:48;;;;;;;6.90;4.85;;;18.40;77.60;;;;;;4996476;28;20034;-91
2023/09/16 01:13:14;;;;;;;7.97;5.15;;;18.40;77.50;;;;;;4992973;28;20199;-91
2023/09/16 01:15:55;;;;;;;6.10;4.50;;;18.40;77.30;;;;;;5003398;28;20032;-92
2023/09/16 01:18:31;;;;;;;6.03;4.45;;;18.40;77.20;;;;;;4994001;28;20041;-92
2023/09/16 01:20:59;;;;;;;6.55;4.53;;;18.50;77.10;;;;;;4991065;28;20030;-93
2023/09/16 01:23:24;;;;;;;7.13;5.53;;;18.50;76.90;;;;;;5020713;28;20266;-92
2023/09/16 01:25:50;;;;;;;6.07;4.43;;;18.50;76.90;;;;;;4995519;28;20492;-90
2023/09/16 01:28:16;;;;;;;6.22;4.18;;;18.50;76.80;;;;;;4995809;28;20038;-91
2023/09/16 01:30:47;;;;;;;5.50;4.38;;;18.50;76.60;;;;;;4996079;28;20030;-91
2023/09/16 01:33:22;;;;;;;5.80;4.38;;;18.50;76.50;;;;;;4999805;28;20052;-91
2023/09/16 01:35:50;;;;;;;6.05;4.72;;;18.50;76.50;;;;;;5000765;28;20058;-91
2023/09/16 01:38:20;;;;;;;6.63;4.95;;;18.50;76.40;;;;;;4991259;28;20120;-91
2023/09/16 01:40:48;;;;;;;5.80;4.28;;;18.50;76.50;;;;;;4997758;28;20102;-90
2023/09/16 01:43:15;;;;;;;7.28;5.40;;;18.40;76.70;;;;;;4992267;28;20519;-91
2023/09/16 01:45:44;;;;;;;8.55;4.63;;;18.40;77.00;;;;;;5002993;28;20112;-91
2023/09/16 01:48:11;;;;;;;7.90;4.68;;;18.30;77.70;;;;;;5022697;28;20030;-90
2023/09/16 01:50:37;;;;;;;5.80;4.53;;;18.30;77.00;;;;;;5021527;28;20014;-90
2023/09/16 01:53:05;;;;;;;7.10;5.50;;;18.30;77.10;;;;;;4990121;28;20485;-89
2023/09/16 01:55:31;;;;;;;5.50;4.60;;;18.20;77.30;;;;;;4989983;28;20022;-89
2023/09/16 01:57:57;;;;;;;6.32;4.65;;;18.20;77.40;;;;;;4990197;28;20100;-89
2023/09/16 02:00:23;;;;;;;6.95;5.10;;;18.20;77.40;;;;;;4991878;28;20026;-91
2023/09/16 02:02:49;;;;;;;6.40;4.70;;;18.10;77.30;;;;;;4988024;28;20374;-90
2023/09/16 02:05:16;;;;;;;6.38;4.80;;;18.20;77.40;;;;;;4990459;28;20026;-91
2023/09/16 02:07:42;;;;;;;6.78;4.80;;;18.20;77.90;;;;;;4993119;28;20401;-88
2023/09/16 02:10:08;;;;;;;7.25;5.28;;;18.20;77.20;;;;;;4988915;28;20030;-90
2023/09/16 02:12:34;;;;;;;6.97;5.03;;;18.10;77.30;;;;;;4995305;28;20501;-87
2023/09/16 02:14:59;;;;;;;5.50;4.65;;;18.10;77.20;;;;;;4999244;28;20049;-88
2023/09/16 02:17:25;;;;;;;6.32;4.55;;;18.10;77.20;;;;;;5005350;28;20451;-90
2023/09/16 02:19:54;;;;;;;5.85;4.38;;;18.10;77.10;;;;;;4986976;28;20118;-88
2023/09/16 02:22:19;;;;;;;6.07;4.50;;;18.10;77.10;;;;;;4991727;28;20034;-88
2023/09/16 02:24:45;;;;;;;6.13;4.57;;;18.10;77.00;;;;;;4991134;28;20461;-89
2023/09/16 02:27:12;;;;;;;6.00;4.95;;;18.10;77.10;;;;;;4994706;28;20047;-89
2023/09/16 02:29:37;;;;;;;6.15;4.50;;;18.00;77.00;;;;;;5001267;28;20026;-89
2023/09/16 02:32:03;;;;;;;6.47;4.72;;;18.00;77.20;;;;;;5002338;28;20436;-88
2023/09/16 02:34:31;;;;;;;6.43;4.60;;;18.00;77.20;;;;;;4990692;28;20022;-89
2023/09/16 02:36:58;;;;;;;7.43;4.70;;;18.00;77.20;;;;;;4990258;28;20030;-88
2023/09/16 02:39:24;;;;;;;5.38;4.13;;;17.90;77.20;;;;;;4990322;28;20045;-88
2023/09/16 02:41:49;;;;;;;7.60;4.70;;;17.90;77.20;;;;;;4989374;28;20377;-88
2023/09/16 02:44:15;;;;;;;6.15;4.32;;;17.90;77.20;;;;;;4994707;28;20062;-90
2023/09/16 02:46:40;;;;;;;6.03;4.95;;;17.90;77.20;;;;;;5000057;28;20026;-88
2023/09/16 02:49:06;;;;;;;6.05;5.10;;;17.80;77.20;;;;;;4997627;28;20189;-88
2023/09/16 02:51:32;;;;;;;6.45;5.35;;;17.80;77.50;;;;;;5009503;28;20037;-89
2023/09/16 02:53:59;;;;;;;5.05;4.20;;;17.80;77.60;;;;;;5022680;28;20043;-89
2023/09/16 02:56:25;;;;;;;5.78;4.57;;;17.70;77.60;;;;;;5003523;28;20579;-89
2023/09/16 02:58:53;;;;;;;6.10;4.50;;;17.70;77.80;;;;;;5000550;28;20118;-89
2023/09/16 03:01:18;;;;;;;6.85;5.35;;;17.60;78.00;;;;;;4988046;28;20034;-89
2023/09/16 03:03:44;;;;;;;6.63;5.05;;;17.60;78.10;;;;;;4990658;28;20087;-89
2023/09/16 03:06:09;;;;;;;7.90;5.68;;;17.60;78.10;;;;;;5021870;28;20068;-89
2023/09/16 03:08:35;;;;;;;6.75;4.82;;;17.60;78.10;;;;;;4998187;28;20568;-89
2023/09/16 03:11:05;;;;;;;5.63;4.82;;;17.60;78.00;;;;;;4989146;28;20022;-89
2023/09/16 03:13:30;;;;;;;7.20;5.60;;;17.60;78.10;;;;;;4994141;28;20542;-90
2023/09/16 03:16:14;;;;;;;5.60;4.80;;;17.60;78.00;;;;;;4988972;28;20126;-87
2023/09/16 03:18:44;;;;;;;7.63;5.53;;;17.60;78.10;;;;;;4998512;28;20033;-88
2023/09/16 03:21:10;;;;;;;6.72;4.82;;;17.60;78.80;;;;;;5008673;28;20253;-89
2023/09/16 03:23:35;;;;;;;6.53;5.65;;;17.60;78.10;;;;;;5004934;28;20384;-89
2023/09/16 03:26:01;;;;;;;7.45;5.20;;;17.60;78.10;;;;;;5002136;28;20494;-89
2023/09/16 03:28:27;;;;;;;6.68;4.85;;;17.60;78.20;;;;;;5001802;28;20456;-89
2023/09/16 03:30:52;;;;;;;6.35;5.30;;;17.60;78.20;;;;;;4991000;28;20098;-89
2023/09/16 03:33:18;;;;;;;6.20;5.40;;;17.60;78.20;;;;;;4995908;28;20038;-89
2023/09/16 03:35:43;;;;;;;7.05;5.80;;;17.60;78.30;;;;;;4997587;28;20020;-89
2023/09/16 03:38:09;;;;;;;7.93;5.50;;;17.60;78.30;;;;;;5013074;28;20033;-89
2023/09/16 03:40:35;;;;;;;8.38;4.70;;;17.50;78.20;;;;;;5000354;28;20571;-90
2023/09/16 03:43:01;;;;;;;7.53;5.63;;;17.50;78.40;;;;;;4996750;28;20030;-88
2023/09/16 03:45:26;;;;;;;7.80;5.30;;;17.50;78.50;;;;;;4995922;28;20030;-87
2023/09/16 03:47:52;;;;;;;6.75;5.40;;;17.40;78.60;;;;;;5000907;28;20019;-91
2023/09/16 03:50:17;;;;;;;6.60;5.47;;;17.40;78.60;;;;;;5001303;28;20485;-90
2023/09/16 03:52:43;;;;;;;5.35;4.55;;;17.40;78.70;;;;;;4997459;28;20557;-91
2023/09/16 03:55:09;;;;;;;6.35;5.03;;;17.40;78.70;;;;;;4991619;28;20034;-88
2023/09/16 03:57:34;;;;;;;6.18;5.13;;;17.40;78.80;;;;;;5000481;28;20038;-87
2023/09/16 04:00:00;;;;;;;8.27;5.30;;;17.30;78.80;;;;;;4994443;28;20030;-88
2023/09/16 04:02:25;;;;;;;6.45;5.68;;;17.30;78.80;;;;;;4989671;28;20037;-88
2023/09/16 04:04:51;;;;;;;7.68;5.88;;;17.40;78.90;;;;;;4991532;28;20505;-87
2023/09/16 04:07:16;;;;;;;6.57;5.20;;;17.40;78.90;;;;;;5006075;28;20045;-88
2023/09/16 04:09:42;;;;;;;6.28;4.72;;;17.40;79.00;;;;;;5004445;28;20106;-88
2023/09/16 04:12:08;;;;;;;6.35;4.65;;;17.30;78.90;;;;;;4998828;28;20029;-88
2023/09/16 04:14:33;;;;;;;6.88;4.95;;;17.40;78.90;;;;;;5000186;28;20052;-87
2023/09/16 04:16:59;;;;;;;6.45;4.75;;;17.40;78.90;;;;;;4997260;28;20026;-86
2023/09/16 04:19:24;;;;;;;5.40;4.50;;;17.40;78.80;;;;;;4992388;28;20037;-87
2023/09/16 04:21:51;;;;;;;5.47;4.20;;;17.30;78.80;;;;;;4995108;28;20034;-87
2023/09/16 04:24:16;;;;;;;6.15;4.28;;;17.30;79.00;;;;;;5008865;28;20105;-86
2023/09/16 04:26:42;;;;;;;5.82;4.38;;;17.30;79.10;;;;;;5003229;28;20108;-87
2023/09/16 04:29:07;;;;;;;6.53;4.65;;;17.30;79.10;;;;;;4992656;28;20027;-87
2023/09/16 04:31:33;;;;;;;5.70;4.40;;;17.30;79.10;;;;;;5020435;28;20044;-86
2023/09/16 04:33:59;;;;;;;6.30;5.00;;;17.30;79.20;;;;;;4995953;28;20053;-87
2023/09/16 04:36:24;;;;;;;7.63;4.75;;;17.20;79.20;;;;;;5000072;28;20034;-87
2023/09/16 04:38:50;;;;;;;7.38;5.18;;;17.30;79.20;;;;;;4996527;28;20485;-88
2023/09/16 04:41:15;;;;;;;7.60;4.90;;;17.30;79.20;;;;;;4993484;28;20095;-87
2023/09/16 04:43:43;;;;;;;5.75;4.72;;;17.30;79.20;;;;;;4996831;28;20033;-88
2023/09/16 04:46:09;;;;;;;6.43;5.05;;;17.30;79.20;;;;;;5023286;28;20417;-88
2023/09/16 04:48:34;;;;;;;9.80;6.20;;;17.30;79.20;;;;;;4999410;28;20026;-87
2023/09/16 04:51:00;;;;;;;6.93;5.78;;;17.30;79.40;;;;;;4989737;28;20134;-87
2023/09/16 04:53:25;;;;;;;10.40;6.97;;;17.30;79.50;;;;;;4992483;28;20053;-86
2023/09/16 04:56:02;;;;;;;9.02;7.40;;;17.20;79.60;;;;;;4995426;28;20060;-85
2023/09/16 04:58:27;;;;;;;7.13;5.47;;;17.20;79.90;;;;;;4999186;28;20056;-86
2023/09/16 05:00:53;;;;;;;7.45;6.47;;;17.20;80.00;;;;;;5007515;28;20034;-85
2023/09/16 05:03:19;;;;;;;9.10;6.40;;;17.20;80.20;;;;;;4993740;28;20084;-87
2023/09/16 05:05:47;;;;;;;9.70;6.03;;;17.20;80.10;;;;;;4992963;28;20399;-87
2023/09/16 05:08:13;;;;;;;7.75;6.05;;;17.20;80.10;;;;;;4989001;28;20030;-88
2023/09/16 05:10:38;;;;;;;7.25;5.35;;;17.20;80.10;;;;;;4992328;28;20030;-88
2023/09/16 05:13:04;;;;;;;8.20;6.60;;;17.20;80.10;;;;;;4988444;28;20041;-88
2023/09/16 05:15:29;;;;;;;6.78;5.40;;;17.20;80.00;;;;;;4991486;28;20448;-87
2023/09/16 05:17:55;;;;;;;7.80;5.25;;;17.20;80.00;;;;;;4991059;28;20034;-88
2023/09/16 05:20:21;;;;;;;6.55;5.05;;;17.20;79.90;;;;;;4991142;28;20120;-87
2023/09/16 05:22:50;;;;;;;7.53;5.28;;;17.20;79.90;;;;;;4991861;28;20026;-87
2023/09/16 05:25:16;;;;;;;7.07;5.10;;;17.20;79.80;;;;;;4995719;28;20026;-86
2023/09/16 05:27:42;;;;;;;6.25;5.15;;;17.20;79.80;;;;;;4989149;28;20066;-87
2023/09/16 05:30:08;;;;;;;6.65;5.70;;;17.20;79.80;;;;;;4998062;28;20115;-86
2023/09/16 05:32:33;;;;;;;8.15;6.25;;;17.20;79.80;;;;;;4991774;28;20046;-87
2023/09/16 05:35:00;;;;;;;8.32;6.13;;;17.20;80.10;;;;;;4999060;28;20519;-87
2023/09/16 05:37:25;;;;;;;8.13;6.50;;;17.10;80.20;;;;;;4991688;28;20030;-85
2023/09/16 05:39:51;;;;;;;12.70;7.30;;;17.20;80.30;;;;;;4988214;28;20509;-84
2023/09/16 05:42:17;;;;;;;7.88;6.63;;;17.20;80.70;;;;;;4990148;28;20031;-86
2023/09/16 05:44:42;;;;;;;12.35;7.80;;;17.20;80.70;;;;;;4996443;28;20481;-85
2023/09/16 05:47:08;;;;;;;9.00;6.95;;;17.20;81.10;;;;;;4996501;28;20037;-86
2023/09/16 05:49:33;;;;;;;9.50;7.13;;;17.30;81.00;;;;;;4995013;28;20026;-85
2023/09/16 05:51:59;;;;;;;7.75;6.38;;;17.30;80.90;;;;;;4996926;28;20073;-86
2023/09/16 05:54:27;;;;;;;9.05;6.43;;;17.40;80.80;;;;;;4993601;28;20040;-86
2023/09/16 05:56:53;;;;;;;9.45;6.97;;;17.40;80.80;;;;;;4996003;28;20050;-86
2023/09/16 05:59:21;;;;;;;8.05;6.22;;;17.40;80.70;;;;;;4990363;28;20046;-90
2023/09/16 06:01:47;;;;;;;7.93;6.13;;;17.50;80.60;;;;;;4995224;28;20488;-89
2023/09/16 06:04:12;;;;;;;7.38;6.03;;;17.50;80.50;;;;;;5008608;28;20030;-91
2023/09/16 06:06:38;;;;;;;9.38;6.35;;;17.60;80.30;;;;;;4987620;28;20022;-87
2023/09/16 06:09:04;;;;;;;6.88;5.45;;;17.70;80.30;;;;;;4983682;28;20112;-85
2023/09/16 06:11:30;;;;;;;7.63;5.65;;;17.70;80.10;;;;;;5010229;28;20118;-84
2023/09/16 06:13:55;;;;;;;7.85;6.22;;;17.70;80.00;;;;;;4987993;28;20053;-85
2023/09/16 06:16:21;;;;;;;9.55;6.65;;;17.90;80.30;;;;;;5019010;28;20022;-85
2023/09/16 06:18:47;;;;;;;7.88;6.15;;;18.10;80.00;;;;;;5003380;28;20564;-85
2023/09/16 06:21:15;;;;;;;7.15;5.40;;;18.50;79.00;;;;;;5016968;28;20121;-85
2023/09/16 06:23:42;;;;;;;7.72;5.13;;;18.80;77.90;;;;;;4986340;28;20441;-85
2023/09/16 06:26:08;;;;;;;6.32;5.00;;;19.10;76.90;;;;;;4986341;28;20042;-84
2023/09/16 06:28:35;;;;;;;5.63;4.90;;;19.30;76.10;;;;;;4986287;28;20101;-84
2023/09/16 06:31:01;;;;;;;6.45;4.95;;;19.40;75.60;;;;;;4988573;28;20045;-85
2023/09/16 06:33:26;;;;;;;6.68;5.18;;;19.40;75.10;;;;;;4987234;28;20030;-84
2023/09/16 06:35:52;;;;;;;8.15;4.60;;;19.40;74.90;;;;;;4987002;28;20366;-84
2023/09/16 06:38:17;;;;;;;7.60;5.40;;;19.40;75.00;;;;;;4997687;28;20041;-84
2023/09/16 06:40:43;;;;;;;6.97;5.30;;;19.50;75.10;;;;;;4986494;28;20026;-84
2023/09/16 06:43:09;;;;;;;6.45;5.05;;;19.50;75.10;;;;;;4997014;28;20022;-84
2023/09/16 06:45:34;;;;;;;8.00;5.70;;;19.50;75.10;;;;;;4993973;28;20092;-84
2023/09/16 06:48:00;;;;;;;6.18;4.97;;;19.50;75.10;;;;;;4989525;28;20014;-84
2023/09/16 06:50:25;;;;;;;6.00;4.85;;;19.50;75.10;;;;;;4991202;28;20026;-84
2023/09/16 06:52:51;;;;;;;6.50;4.88;;;19.40;75.00;;;;;;4997618;28;20038;-86
2023/09/16 06:55:17;;;;;;;6.90;5.15;;;19.40;75.00;;;;;;5003875;28;20026;-90
2023/09/16 06:57:43;;;;;;;6.35;4.68;;;19.50;75.20;;;;;;4986091;28;20050;-86
2023/09/16 07:00:10;;;;;;;6.50;4.22;;;19.60;75.10;;;;;;4980588;28;20027;-86
2023/09/16 07:02:36;;;;;;;6.85;4.57;;;19.60;75.00;;;;;;4987291;28;20030;-86
2023/09/16 07:05:02;;;;;;;5.78;4.10;;;19.80;74.90;;;;;;4989550;28;20018;-86
2023/09/16 07:07:28;;;;;;;5.43;4.22;;;19.90;74.60;;;;;;4991785;28;20096;-86
2023/09/16 07:09:55;;;;;;;5.85;4.40;;;20.00;74.30;;;;;;4992059;28;20023;-86
2023/09/16 07:12:21;;;;;;;5.55;3.92;;;20.20;74.20;;;;;;4991251;28;20046;-86
2023/09/16 07:14:47;;;;;;;6.30;4.40;;;20.30;73.80;;;;;;4995137;28;20022;-86
2023/09/16 07:17:13;;;;;;;4.53;3.75;;;20.40;73.30;;;;;;4993550;28;20439;-86
2023/09/16 07:19:39;;;;;;;5.20;3.95;;;20.60;73.20;;;;;;4995794;28;20042;-87
2023/09/16 07:22:05;;;;;;;5.30;4.22;;;20.70;72.90;;;;;;5007818;28;20404;-87
2023/09/16 07:24:30;;;;;;;6.07;4.60;;;20.80;72.80;;;;;;5000648;28;20022;-87
2023/09/16 07:26:56;;;;;;;6.63;4.70;;;20.80;72.40;;;;;;5000538;28;20022;-87
2023/09/16 07:29:22;;;;;;;5.25;4.35;;;20.90;72.30;;;;;;4999988;28;20089;-87
2023/09/16 07:31:48;;;;;;;4.85;4.28;;;21.00;72.00;;;;;;4989814;28;20113;-87
2023/09/16 07:34:15;;;;;;;5.38;4.07;;;21.10;71.90;;;;;;4999242;28;20125;-87
2023/09/16 07:36:41;;;;;;;4.97;3.90;;;21.20;71.90;;;;;;4998444;28;20080;-86
2023/09/16 07:39:07;;;;;;;4.82;4.10;;;21.30;71.70;;;;;;4993435;28;20030;-86
2023/09/16 07:41:33;;;;;;;4.70;4.03;;;21.30;71.20;;;;;;4997516;28;20355;-86
2023/09/16 07:43:59;;;;;;;4.65;3.83;;;21.40;71.00;;;;;;4993619;28;20030;-86
2023/09/16 07:46:24;;;;;;;5.75;3.90;;;21.50;70.90;;;;;;5022483;28;20026;-87
2023/09/16 07:48:50;;;;;;;5.53;4.47;;;21.60;70.80;;;;;;4991367;28;20037;-87
2023/09/16 07:51:16;;;;;;;8.00;4.50;;;21.60;70.20;;;;;;4998039;28;20030;-86
2023/09/16 07:53:41;;;;;;;5.68;4.38;;;21.60;70.10;;;;;;4990808;28;20034;-86
2023/09/16 07:56:07;;;;;;;8.18;4.18;;;21.70;70.10;;;;;;5006683;28;20034;-86
2023/09/16 07:58:33;;;;;;;5.75;4.03;;;21.80;70.00;;;;;;4992406;28;20101;-85
2023/09/16 08:00:58;;;;;;;6.85;4.45;;;21.90;69.70;;;;;;4992929;28;20504;-86
2023/09/16 08:03:24;;;;;;;5.90;4.40;;;21.90;69.10;;;;;;5004208;28;20077;-89
2023/09/16 08:05:50;;;;;;;5.40;3.78;;;22.00;68.90;;;;;;4995018;28;20023;-88
2023/09/16 08:08:16;;;;;;;5.53;4.18;;;22.10;68.90;;;;;;4995817;28;20034;-91
2023/09/16 08:10:51;;;;;;;5.45;3.75;;;22.20;68.90;;;;;;5003227;28;20018;-91
2023/09/16 08:13:18;;;;;;;5.22;3.88;;;22.30;68.70;;;;;;5004643;28;20049;-90
2023/09/16 08:15:44;;;;;;;4.32;3.63;;;22.30;68.50;;;;;;4990149;28;20157;-89
2023/09/16 08:18:09;;;;;;;5.00;3.38;;;22.30;68.40;;;;;;4992521;28;20031;-88
2023/09/16 08:20:35;;;;;;;4.70;3.30;;;22.40;68.20;;;;;;5001651;28;20031;-88
2023/09/16 08:23:00;;;;;;;4.18;3.50;;;22.60;67.90;;;;;;4994697;28;20030;-88
2023/09/16 08:25:26;;;;;;;5.53;3.92;;;22.70;67.90;;;;;;5006470;28;20034;-88
2023/09/16 08:27:52;;;;;;;6.05;3.50;;;22.80;67.50;;;;;;5001163;28;20053;-88
2023/09/16 08:30:18;;;;;;;4.57;3.40;;;22.90;67.30;;;;;;5006472;28;20029;-88
2023/09/16 08:32:43;;;;;;;5.43;3.78;;;23.10;67.10;;;;;;5005838;28;20038;-88
2023/09/16 08:35:09;;;;;;;4.85;3.25;;;23.20;67.00;;;;;;4992911;28;20030;-88
2023/09/16 08:37:35;;;;;;;5.05;3.78;;;23.30;66.80;;;;;;5007039;28;20380;-88
2023/09/16 08:40:01;;;;;;;4.70;3.50;;;23.40;66.10;;;;;;4990504;28;20019;-88
2023/09/16 08:42:49;;;;;;;6.82;4.00;;;23.40;65.40;;;;;;5009819;28;20030;-88
2023/09/16 08:45:21;;;;;;;4.68;3.50;;;23.50;65.30;;;;;;5015404;28;20053;-88
2023/09/16 08:47:52;;;;;;;5.10;3.30;;;23.50;65.20;;;;;;4993621;28;20057;-88
2023/09/16 08:50:21;;;;;;;4.47;3.25;;;23.60;65.20;;;;;;4990987;28;20433;-88
2023/09/16 08:52:50;;;;;;;5.03;2.78;;;23.60;65.00;;;;;;4986577;28;20041;-87
2023/09/16 08:55:16;;;;;;;4.38;3.47;;;23.60;65.20;;;;;;4989657;28;20088;-86
2023/09/16 08:57:47;;;;;;;4.97;3.40;;;23.60;65.20;;;;;;4993618;28;20393;-87
2023/09/16 09:00:14;;;;;;;4.18;3.33;;;23.70;65.30;;;;;;4984788;28;20041;-87
2023/09/16 09:02:40;;;;;;;4.70;3.25;;;23.70;64.80;;;;;;5007360;28;20516;-87
2023/09/16 09:05:07;;;;;;;5.55;4.10;;;23.60;64.40;;;;;;4989741;28;20034;-86
2023/09/16 09:07:36;;;;;;;5.72;3.83;;;23.60;63.90;;;;;;4996497;28;20058;-87
2023/09/16 09:10:02;;;;;;;4.47;3.25;;;23.60;63.30;;;;;;4990028;28;20030;-87
2023/09/16 09:12:28;;;;;;;5.15;3.15;;;23.60;63.10;;;;;;4999584;28;20092;-87
2023/09/16 09:14:55;;;;;;;4.28;3.60;;;23.60;63.00;;;;;;4993943;28;20369;-88
2023/09/16 09:17:21;;;;;;;4.07;3.22;;;23.50;63.10;;;;;;4999328;28;20026;-88
2023/09/16 09:19:48;;;;;;;5.55;3.38;;;23.60;62.90;;;;;;4986008;28;20125;-87
2023/09/16 09:22:14;;;;;;;4.10;2.95;;;23.60;62.60;;;;;;4990927;28;20061;-87
2023/09/16 09:24:39;;;;;;;3.70;3.10;;;23.70;62.10;;;;;;4996009;28;20046;-87
2023/09/16 09:27:06;;;;;;;3.75;2.90;;;23.80;61.90;;;;;;4989579;28;20166;-86
2023/09/16 09:29:32;;;;;;;4.50;3.40;;;23.90;61.80;;;;;;4996928;28;20381;-87
2023/09/16 09:31:58;;;;;;;4.60;2.75;;;23.90;61.00;;;;;;5004936;28;20026;-87
2023/09/16 09:34:28;;;;;;;4.97;2.92;;;23.90;60.70;;;;;;5007298;28;20031;-87
2023/09/16 09:36:53;;;;;;;3.63;3.00;;;23.90;60.80;;;;;;4989418;28;20105;-87
2023/09/16 09:39:19;;;;;;;3.50;3.00;;;24.00;60.70;;;;;;4983917;28;20035;-87
2023/09/16 09:41:46;;;;;;;4.57;3.20;;;24.00;60.50;;;;;;4986727;28;20501;-87
2023/09/16 09:44:13;;;;;;;4.32;3.20;;;24.00;60.20;;;;;;4986825;28;20112;-86
2023/09/16 09:46:40;;;;;;;3.83;3.15;;;24.10;60.20;;;;;;4988242;28;20545;-86
2023/09/16 09:49:06;;;;;;;5.60;2.78;;;24.10;60.30;;;;;;4983294;28;20034;-88
2023/09/16 09:51:32;;;;;;;3.97;3.17;;;24.10;60.10;;;;;;4986710;28;20046;-85
2023/09/16 09:53:58;;;;;;;3.35;2.70;;;24.20;60.10;;;;;;5018897;28;20022;-84
2023/09/16 09:56:23;;;;;;;3.28;2.53;;;24.20;60.00;;;;;;4986612;28;20034;-85
2023/09/16 09:58:50;;;;;;;4.20;2.30;;;24.30;60.20;;;;;;5006889;28;20009;-84
2023/09/16 10:01:16;;;;;;;3.60;2.70;;;24.40;60.20;;;;;;4995760;28;20034;-85
2023/09/16 10:03:50;;;;;;;3.28;2.42;;;24.50;59.70;;;;;;4989132;28;20096;-84
2023/09/16 10:06:19;;;;;;;4.10;2.85;;;24.40;59.60;;;;;;4997418;28;20099;-84
2023/09/16 10:08:45;;;;;;;3.97;2.90;;;24.50;59.50;;;;;;4987530;28;20014;-84
2023/09/16 10:11:11;;;;;;;4.70;2.50;;;24.60;59.20;;;;;;5003865;28;20030;-84
2023/09/16 10:13:36;;;;;;;4.90;2.72;;;24.60;59.00;;;;;;4999011;28;20264;-84
2023/09/16 10:16:05;;;;;;;3.10;2.38;;;24.60;59.40;;;;;;4990132;28;20378;-84
2023/09/16 10:18:30;;;;;;;3.00;2.67;;;24.70;58.80;;;;;;5021067;28;20536;-84
2023/09/16 10:20:57;;;;;;;3.97;2.60;;;24.60;57.70;;;;;;4984213;28;20110;-84
2023/09/16 10:23:23;;;;;;;3.80;2.50;;;24.60;57.90;;;;;;4989441;28;20058;-84
2023/09/16 10:25:50;;;;;;;2.75;2.05;;;24.70;57.80;;;;;;4985045;28;20096;-84
2023/09/16 10:28:17;;;;;;;4.82;2.78;;;24.80;57.40;;;;;;4991683;28;20035;-84
2023/09/16 10:30:43;;;;;;;3.45;2.50;;;24.80;57.40;;;;;;4988140;28;20528;-85
2023/09/16 10:33:11;;;;;;;3.50;2.30;;;25.00;57.70;;;;;;4988656;28;20035;-85
2023/09/16 10:35:41;;;;;;;3.55;2.38;;;25.00;57.10;;;;;;4990422;28;20077;-85
2023/09/16 10:38:10;;;;;;;3.17;2.20;;;25.10;56.90;;;;;;4989906;28;20545;-85
2023/09/16 10:40:37;;;;;;;5.65;2.00;;;25.20;56.70;;;;;;4990676;28;20542;-84
2023/09/16 10:43:03;;;;;;;2.63;2.28;;;25.30;55.50;;;;;;4989550;28;20105;-83
2023/09/16 10:45:30;;;;;;;3.17;2.20;;;25.20;54.30;;;;;;4988552;28;20042;-84
2023/09/16 10:47:59;;;;;;;4.25;2.50;;;25.20;53.90;;;;;;4992787;28;20030;-84
2023/09/16 10:50:29;;;;;;;2.70;2.25;;;25.10;53.10;;;;;;4990153;28;20023;-84
2023/09/16 10:53:02;;;;;;;2.25;1.92;;;25.10;53.50;;;;;;4996707;28;20037;-84
2023/09/16 10:55:58;;;;;;;2.40;2.10;;;25.20;54.10;;;;;;4988194;28;20019;-85
2023/09/16 10:58:41;;;;;;;2.63;2.00;;;25.30;54.10;;;;;;4989955;28;20046;-84
2023/09/16 11:01:08;;;;;;;2.55;2.03;;;25.40;54.00;;;;;;4991868;28;20413;-85
2023/09/16 11:03:41;;;;;;;4.13;2.50;;;25.50;53.80;;;;;;4988026;28;20116;-84
2023/09/16 11:06:07;;;;;;;3.13;2.10;;;25.50;52.70;;;;;;4990181;28;20041;-84
2023/09/16 11:08:33;;;;;;;2.38;2.13;;;25.30;52.30;;;;;;4988633;28;20034;-84
2023/09/16 11:10:59;;;;;;;2.20;2.00;;;25.30;52.20;;;;;;5002370;28;20145;-84
2023/09/16 11:13:27;;;;;;;2.92;2.20;;;25.40;52.70;;;;;;4987797;28;20047;-83
2023/09/16 11:15:58;;;;;;;3.60;2.50;;;25.30;52.70;;;;;;4985701;28;20026;-84
2023/09/16 11:18:24;;;;;;;2.40;2.20;;;25.30;53.00;;;;;;5005592;28;20392;-84
2023/09/16 11:20:50;;;;;;;2.20;2.00;;;25.30;53.60;;;;;;4985333;28;20025;-84
2023/09/16 11:23:16;;;;;;;3.45;2.10;;;25.40;53.60;;;;;;4995996;28;20034;-85
2023/09/16 11:25:43;;;;;;;3.65;2.30;;;25.50;53.70;;;;;;4995776;28;20022;-84
2023/09/16 11:28:13;;;;;;;3.35;2.40;;;25.70;53.60;;;;;;4995234;28;20077;-85
2023/09/16 11:30:39;;;;;;;2.92;2.28;;;25.70;53.70;;;;;;4990002;28;20312;-85
2023/09/16 11:33:30;;;;;;;2.65;2.10;;;25.80;53.90;;;;;;4990573;28;20042;-85
2023/09/16 11:36:15;;;;;;;3.00;2.45;;;25.90;53.80;;;;;;4994543;28;20022;-85
2023/09/16 11:39:11;;;;;;;3.13;2.20;;;25.90;53.10;;;;;;4998872;28;20038;-85
2023/09/16 11:41:37;;;;;;;2.42;2.20;;;26.00;53.40;;;;;;4998782;28;20053;-84
2023/09/16 11:44:05;;;;;;;2.67;2.00;;;26.20;53.50;;;;;;4992980;28;20092;-84
2023/09/16 11:46:32;;;;;;;2.53;1.92;;;26.30;53.70;;;;;;4991431;28;20062;-84
2023/09/16 11:49:05;;;;;;;2.20;2.00;;;26.40;53.60;;;;;;4994662;28;20169;-84
2023/09/16 11:51:32;;;;;;;2.92;2.60;;;26.50;53.20;;;;;;4989421;28;20470;-84
2023/09/16 11:53:57;;;;;;;2.63;2.35;;;26.50;53.20;;;;;;4992277;28;20034;-84
2023/09/16 11:56:27;;;;;;;2.58;2.35;;;26.40;53.20;;;;;;4991676;28;20076;-83
2023/09/16 11:58:56;;;;;;;2.92;2.60;;;26.50;53.60;;;;;;4991660;28;20054;-84
2023/09/16 12:01:34;;;;;;;2.78;2.38;;;26.50;53.30;;;;;;5001761;28;20041;-84
2023/09/16 12:04:01;;;;;;;2.25;2.05;;;26.50;53.50;;;;;;4995976;28;20025;-84
2023/09/16 12:06:27;;;;;;;4.32;2.85;;;26.40;53.60;;;;;;4988572;28;20019;-84
2023/09/16 12:08:55;;;;;;;3.67;2.45;;;26.30;53.70;;;;;;4997509;28;20488;-84
2023/09/16 12:11:22;;;;;;;3.15;2.70;;;26.40;54.30;;;;;;4990145;28;20449;-85
2023/09/16 12:13:48;;;;;;;3.13;2.30;;;26.40;54.00;;;;;;4993622;28;20065;-84
2023/09/16 12:16:15;;;;;;;4.00;2.67;;;26.50;54.20;;;;;;4992422;28;20053;-83
2023/09/16 12:18:42;;;;;;;2.88;2.30;;;26.60;53.60;;;;;;4990229;28;20030;-85
2023/09/16 12:21:08;;;;;;;3.42;2.42;;;26.50;53.50;;;;;;4991361;28;20026;-85
2023/09/16 12:23:34;;;;;;;3.95;2.10;;;26.50;53.60;;;;;;5007625;28;20041;-85
2023/09/16 12:25:59;;;;;;;2.85;2.30;;;26.60;53.80;;;;;;5008903;28;20018;-84
2023/09/16 12:28:26;;;;;;;2.38;2.00;;;26.80;53.90;;;;;;4993067;28;20521;-85
2023/09/16 12:30:55;;;;;;;3.33;2.38;;;26.90;53.90;;;;;;4996021;28;20244;-84
2023/09/16 12:33:21;;;;;;;2.67;2.38;;;27.00;53.20;;;;;;4991477;28;20066;-84
2023/09/16 12:35:49;;;;;;;2.35;2.15;;;26.90;53.30;;;;;;4994039;28;20022;-84
2023/09/16 12:38:15;;;;;;;2.92;2.10;;;26.80;53.30;;;;;;4992935;28;20604;-84
2023/09/16 12:40:41;;;;;;;2.83;1.98;;;26.90;53.50;;;;;;5003415;28;20026;-84
2023/09/16 12:43:07;;;;;;;2.97;2.10;;;27.00;53.20;;;;;;4993566;28;20492;-85